Česky Dansk Deutsch English Español Suomi Français Magyar Italiano Nederlands norsk Polski Português svenska Türkçe

 

Het Weer

Bouar (Central African Republic)

10:00, 22 juli 2016 (GMT)

NWNNE
WE
SWSSE
Home            
Bouar Meiganga Betare-Oya Berberati Bossangoa Batouri Bossembele Ngaoundere Moundou Abong-Mbang Bangui Yoko Lomie Pala Banyo Garoua Souanke Sarh Ouesso Yola Bafia Younde Ii Yaounde

Om een weerknop op uw website of weblog te plaatsen, copieer onderstaande code en plak die in uw pagina. In het eerste vakje staat HTML-code, in het tweede vakje UBB-code.


Add to Google

Details

Wind speed:2 bf, 4 kn, 2.1 m/s, 4.6 miles/h, 7.4 km/h
Wind direction:W, 260°
Visibility:Greater than 10000 m, 10 km, 32800 ft, 6.2 miles
Clouds:Durchbrochene Bewölkung at 2000 ft, 610 m
Ein wenig bewölkt at 3000 ft, 914 m
Temperature:24°C, 75°F
Gefühlte Temperatur:24°C, 76°F
Dew-point:20°C, 68°F
Atmospheric pressure:1019 hPa, 764.3 mmHg, 30.09 inHg, 1.006 atm
Relative humidity:78.4 %
METAR:FEFO 221000Z 26004KT 9999 BKN020 FEW030CB 24/20 Q1019

Snelkoppelingen

Actuele weersinformatie van de hele wereld. Voeg locaties toe met het plus (+) symbool. Deze snelkoppelingen kunnen worden toegevoegd aan Google.

Lid van de Technetium groep

website free tracking
StatCounter NetStat W3C Validator

22-04-2018 06:56:44
astro.technetium.be money.technetium.be phote.technetium.be tafeltennistafel.technetium.be www.ligfiets.net